Latest Weather Observations for Laverton

IDV60901

Issued at 5:21 am EDT Monday 26 January 2015 (issued every 10 minutes, with the page automatically refreshed every 10 minutes)

About weather observations | Map of Melbourne area stations | Latest observations for Melbourne area | Other Formats
Station Details ID: 087031 Name: LAVERTON RAAF Lat: -37.86 Lon: 144.76 Height: 20.1 m
Data from the previous 72 hours. | See also: Recent months at Laverton
Date/Time
EDT
Tmp

°C
App
Tmp
°C
Dew
Point
°C
Rel
Hum
%
Delta-T

°C
Wind Press
QNH
hPa
Press
MSL
hPa
Rain
since
9 am
mm
Dir
 
Spd
km/h
Gust
km/h
Spd
kts
Gust
kts
26/05:00am 8.3 5.1 5.2 81 1.4 NW 11 13 6 7 1014.6 1014.5 0.0
26/04:30am 9.1 5.3 6.0 81 1.4 WNW 15 19 8 10 1014.4 1014.3 0.0
26/04:00am 8.9 5.1 5.6 80 1.5 NW 15 17 8 9 1014.2 1014.1 0.0
26/03:30am 9.0 5.9 5.6 79 1.5 WNW 11 13 6 7 1014.2 1014.1 0.0
26/03:00am 9.3 6.2 5.7 78 1.6 WNW 11 11 6 6 1014.2 1014.1 0.0
26/02:30am 9.0 5.5 5.4 78 1.6 NW 13 15 7 8 1014.1 1014.0 0.0
26/02:00am 9.1 5.5 4.9 75 1.9 NW 13 17 7 9 1013.9 1013.8 0.0
26/01:30am 9.5 6.2 4.3 70 2.3 NW 11 13 6 7 1014.0 1013.9 0.0
26/01:00am 12.2 9.1 5.6 64 3.1 W 11 17 6 9 1013.9 1013.8 0.0
26/12:30am 12.9 9.8 5.6 61 3.4 W 11 15 6 8 1013.8 1013.7 0.0
26/12:00am 13.5 10.4 5.7 59 3.7 W 11 17 6 9 1013.8 1013.7 0.0
 
Date/Time
EDT
Tmp

°C
App
Tmp
°C
Dew
Point
°C
Rel
Hum
%
Delta-T

°C
Wind Press
QNH
hPa
Press
MSL
hPa
Rain
since
9 am
mm
Dir
 
Spd
km/h
Gust
km/h
Spd
kts
Gust
kts
25/11:30pm 14.0 10.5 5.6 57 4.0 W 13 17 7 9 1013.8 1013.7 0.0
25/11:00pm 14.3 10.1 5.7 56 4.1 WSW 17 24 9 13 1013.7 1013.6 0.0
25/10:30pm 14.7 10.4 5.2 53 4.5 WSW 17 24 9 13 1013.7 1013.6 0.0
25/10:00pm 15.2 10.3 4.9 50 4.8 WSW 20 32 11 17 1013.4 1013.3 0.0
25/09:30pm 15.7 10.4 5.0 49 5.1 SW 22 30 12 16 1013.0 1012.9 0.0
25/09:00pm 16.4 11.0 4.4 45 5.6 WSW 22 32 12 17 1012.7 1012.6 0.0
25/08:30pm 16.9 10.7 4.3 43 5.9 WSW 26 35 14 19 1012.2 1012.1 0.0
25/08:00pm 17.8 11.5 4.0 40 6.5 SW 26 37 14 20 1011.9 1011.8 0.0
25/07:30pm 18.7 12.5 4.5 39 6.8 SW 26 35 14 19 1011.3 1011.3 0.0
25/07:00pm 18.3 12.0 5.8 44 6.1 SW 28 35 15 19 1010.9 1010.9 0.0
25/06:30pm 19.0 13.2 4.4 38 7.0 SW 24 33 13 18 1010.4 1010.4 0.0
25/05:30pm 20.1 12.4 5.4 38 7.2 WSW 35 50 19 27 1010.0 1010.0 0.0
25/05:00pm 21.1 13.1 5.9 37 7.6 SW 37 52 20 28 1009.7 1009.7 0.0
25/04:52pm 19.6 12.5 5.3 39 7.0 SW 32 52 17 28 1009.6 1009.6 0.0
25/04:30pm 20.5 13.2 4.5 35 7.8 WSW 32 43 17 23 1009.3 1009.3 0.0
25/04:00pm 21.5 14.8 5.4 35 8.0 WSW 30 44 16 24 1009.1 1009.1 0.0
25/03:32pm 21.5 14.7 3.2 30 8.7 WSW 28 54 15 29 1008.9 1008.9 0.0
25/03:30pm 22.1 15.4 3.7 30 8.9 WSW 28 43 15 23 1008.8 1008.8 0.0
25/03:13pm 21.3 13.7 3.0 30 8.7 WSW 32 50 17 27 1008.8 1008.8 0.0
25/03:00pm 21.7 14.0 3.4 30 8.8 WSW 33 44 18 24 1008.8 1008.8 0.0
25/02:30pm 21.6 13.9 3.3 30 8.7 WSW 33 48 18 26 1008.7 1008.7 0.0
25/02:00pm 20.8 13.3 4.4 34 8.0 WSW 33 44 18 24 1008.5 1008.5 0.0
25/01:30pm 21.2 14.1 3.4 31 8.5 W 30 43 16 23 1008.4 1008.4 0.0
25/01:05pm 20.5 13.6 2.8 31 8.3 WSW 28 46 15 25 1008.4 1008.4 0.0
25/01:00pm 20.8 13.8 4.0 33 8.1 WSW 30 46 16 25 1008.5 1008.5 0.0
25/12:40pm 19.4 12.2 3.2 34 7.6 W 30 48 16 26 1008.5 1008.5 0.0
25/12:30pm 19.6 13.3 5.6 40 6.9 WSW 28 43 15 23 1008.5 1008.5 0.0
25/12:20pm 19.6 13.2 5.3 39 7.0 WSW 28 46 15 25 1008.3 1008.3 0.0
25/12:00pm 19.3 13.6 5.0 39 7.0 W 24 41 13 22 1008.5 1008.5 0.0
25/11:30am 19.0 12.6 6.8 45 6.1 WSW 30 48 16 26 1008.5 1008.5 0.0
25/11:00am 17.7 11.8 7.4 51 5.2 WSW 28 43 15 23 1008.6 1008.6 0.0
25/10:30am 17.7 11.4 5.9 46 5.8 WSW 28 41 15 22 1008.2 1008.2 0.0
25/10:00am 17.4 11.9 7.5 52 5.0 WSW 26 33 14 18 1008.0 1008.0 0.0
25/09:30am 17.5 12.1 7.8 53 4.9 WSW 26 37 14 20 1007.7 1007.7 0.0
25/08:30am 15.9 11.4 10.2 69 3.0 WSW 24 33 13 18 1007.2 1007.2 0.0
25/08:00am 15.6 12.9 10.2 70 2.8 W 15 22 8 12 1007.1 1007.1 0.0
25/07:30am 14.7 11.7 10.5 76 2.2 W 17 24 9 13 1006.5 1006.5 0.0
25/07:00am 14.7 11.5 11.1 79 1.9 W 19 28 10 15 1006.0 1006.0 0.0
25/06:30am 14.5 11.7 11.3 81 1.7 W 17 22 9 12 1005.6 1005.6 0.0
25/05:37am 14.1 10.8 11.6 85 1.3 WSW 20 30 11 16 1004.7 1004.7 0.0
25/05:30am 14.0 10.4 11.7 86 1.2 WSW 22 30 12 16 1004.9 1004.9 0.0
25/05:19am 14.0 9.1 11.3 84 1.4 WSW 28 46 15 25 1004.7 1004.7 0.0
25/05:17am 14.2 8.6 11.5 84 1.4 WSW 32 46 17 25 1004.6 1004.6 0.0
25/05:00am 15.8 10.0 11.6 76 2.3 WSW 33 48 18 26 1004.0 1004.0 0.0
25/04:46am 16.6 12.6 11.7 73 2.7 W 24 48 13 26 1003.7 1003.7 0.0
25/04:30am 16.0 14.2 12.0 77 2.2 W 13 22 7 12 1003.2 1003.2 0.0
25/04:00am 14.4 12.6 11.0 80 1.8 NW 11 13 6 7 1002.8 1002.8 0.0
25/03:30am 14.6 13.0 11.6 82 1.6 NW 11 13 6 7 1002.6 1002.6 0.0
25/03:00am 14.9 13.3 11.5 80 1.8 NNW 11 15 6 8 1002.6 1002.6 0.0
25/02:30am 15.3 14.1 11.5 78 2.0 NNW 9 13 5 7 1002.5 1002.5 0.0
25/02:00am 16.1 14.6 11.9 76 2.3 NW 11 17 6 9 1003.2 1003.2 0.0
25/01:30am 14.9 13.3 11.5 80 1.8 NW 11 13 6 7 1003.6 1003.6 0.0
25/01:00am 15.5 14.2 11.3 76 2.3 NW 9 11 5 6 1003.6 1003.6 0.0
25/12:30am 16.5 15.2 11.2 71 2.9 W 9 11 5 6 1003.7 1003.7 0.0
25/12:00am 17.6 16.9 12.1 70 3.0 S 7 9 4 5 1003.8 1003.8 0.0
 
Date/Time
EDT
Tmp

°C
App
Tmp
°C
Dew
Point
°C
Rel
Hum
%
Delta-T

°C
Wind Press
QNH
hPa
Press
MSL
hPa
Rain
since
9 am
mm
Dir
 
Spd
km/h
Gust
km/h
Spd
kts
Gust
kts
24/11:30pm 17.9 17.4 12.1 69 3.2 SSE 6 7 3 4 1003.8 1003.8 0.0
24/11:00pm 18.3 17.6 12.1 67 3.4 SE 7 11 4 6 1003.9 1003.9 0.0
24/10:30pm 18.8 17.5 12.5 67 3.5 SE 11 15 6 8 1004.0 1004.0 0.0
24/10:00pm 19.0 17.5 13.2 69 3.3 SSE 13 19 7 10 1003.9 1003.9 0.0
24/09:30pm 19.3 17.9 13.5 69 3.3 SSE 13 20 7 11 1003.5 1003.5 0.0
24/09:00pm 19.5 16.9 13.2 67 3.6 S 19 28 10 15 1003.3 1003.3 0.0
24/08:30pm 20.0 17.5 14.1 69 3.4 S 20 28 11 15 1002.7 1002.7 0.0
24/08:00pm 20.9 18.8 14.8 68 3.6 S 19 26 10 14 1002.3 1002.3 0.0
24/07:30pm 21.1 18.0 14.5 66 3.9 S 24 33 13 18 1002.1 1002.1 0.0
24/07:00pm 21.6 18.8 14.3 63 4.3 S 22 28 12 15 1001.7 1001.7 0.0
24/06:30pm 22.0 18.7 14.1 61 4.6 S 24 32 13 17 1001.6 1001.6 0.0
24/06:00pm 22.4 18.6 13.7 58 5.1 SSE 26 35 14 19 1001.4 1001.4 0.0
24/05:30pm 23.8 20.7 14.5 56 5.5 S 24 37 13 20 1001.3 1001.3 0.0
24/05:00pm 24.2 20.6 14.3 54 5.9 SSE 26 32 14 17 1001.2 1001.2 0.0
24/04:30pm 24.9 22.5 14.4 52 6.2 SE 20 30 11 16 1001.4 1001.4 0.0
24/04:00pm 25.8 23.5 14.0 48 7.0 SSE 19 28 10 15 1001.7 1001.7 0.0
24/03:30pm 26.0 23.6 13.8 47 7.2 SSE 19 26 10 14 1001.9 1001.9 0.0
24/03:00pm 26.1 23.5 13.2 44 7.6 S 19 28 10 15 1002.3 1002.3 0.0
24/02:30pm 25.7 23.3 13.9 48 7.0 S 19 28 10 15 1002.6 1002.6 0.0
24/02:00pm 26.2 24.2 14.0 47 7.3 S 17 22 9 12 1003.0 1003.0 0.0
24/01:30pm 24.6 22.2 13.8 51 6.3 SSE 19 24 10 13 1003.6 1003.6 0.0
24/01:00pm 23.6 22.3 13.8 54 5.8 S 13 22 7 12 1004.0 1004.0 0.0
24/12:30pm 23.0 21.4 14.0 57 5.3 SE 15 24 8 13 1004.2 1004.2 0.0
24/12:00pm 22.7 21.5 14.0 58 5.1 SE 13 22 7 12 1004.3 1004.3 0.0
24/11:30am 23.0 22.5 13.8 56 5.4 ENE 9 13 5 7 1004.8 1004.8 0.0
24/11:00am 21.9 21.3 13.5 59 4.9 SSE 9 19 5 10 1005.2 1005.2 0.0
24/10:30am 21.0 20.7 13.2 61 4.5 S 7 11 4 6 1005.5 1005.5 0.0
24/10:00am 20.7 20.5 13.6 64 4.1 N 7 11 4 6 1005.8 1005.8 0.0
24/09:30am 19.1 18.9 13.1 68 3.4 NW 6 11 3 6 1006.1 1006.1 0.0
24/09:00am 19.3 19.0 13.2 68 3.5 SW 7 9 4 5 1006.3 1006.3 0.0
24/08:30am 17.8 17.6 12.9 73 2.7 NW 6 9 3 5 1006.0 1006.0 0.0
24/08:00am 16.3 15.5 12.8 80 1.9 WNW 9 11 5 6 1005.9 1005.9 0.0
24/07:30am 14.3 13.7 12.3 88 1.1 NW 7 9 4 5 1005.8 1005.8 0.0
24/07:00am 11.9 9.9 10.3 90 0.8 WNW 11 11 6 6 1005.7 1005.7 0.0
24/06:30am 11.7 9.3 10.1 90 0.8 NW 13 15 7 8 1005.8 1005.8 0.0
24/06:00am 11.5 9.4 9.9 90 0.8 NW 11 13 6 7 1005.6 1005.6 0.0
24/05:30am 11.3 9.5 9.4 88 1.0 NNW 9 9 5 5 1005.8 1005.8 0.0
24/05:00am 11.5 9.4 9.6 88 1.0 NW 11 13 6 7 1005.9 1005.9 0.0
24/04:30am 11.7 9.6 9.6 87 1.1 WNW 11 11 6 6 1005.7 1005.7 0.0
24/04:00am 12.5 10.8 10.0 85 1.3 WNW 9 9 5 5 1005.9 1005.9 0.0
24/03:30am 12.8 11.1 10.0 83 1.4 WSW 9 11 5 6 1006.3 1006.3 0.0
24/03:00am 14.3 13.5 10.9 80 1.8 S 6 7 3 4 1006.4 1006.4 0.0
24/02:30am 15.4 15.1 11.4 77 2.1 S 4 7 2 4 1006.8 1006.8 0.0
24/02:00am 15.8 15.2 11.6 76 2.3 SSE 6 7 3 4 1007.3 1007.3 0.0
24/01:30am 15.9 15.2 11.5 75 2.4 SSE 6 9 3 5 1007.7 1007.7 0.0
24/01:00am 16.2 15.5 12.0 76 2.3 SSE 7 11 4 6 1008.0 1008.0 0.0
24/12:30am 16.4 15.8 12.2 76 2.3 SSE 7 11 4 6 1008.1 1008.1 0.0
24/12:00am 16.8 15.3 11.9 73 2.7 SE 11 15 6 8 1008.4 1008.4 0.0
 
Date/Time
EDT
Tmp

°C
App
Tmp
°C
Dew
Point
°C
Rel
Hum
%
Delta-T

°C
Wind Press
QNH
hPa
Press
MSL
hPa
Rain
since
9 am
mm
Dir
 
Spd
km/h
Gust
km/h
Spd
kts
Gust
kts
23/11:30pm 17.1 15.7 12.2 73 2.7 SE 11 19 6 10 1008.6 1008.6 0.0
23/11:00pm 17.4 15.7 12.5 73 2.7 SE 13 22 7 12 1008.7 1008.7 0.0
23/10:30pm 17.6 15.1 12.3 71 2.9 ESE 17 24 9 13 1008.9 1008.9 0.0
23/10:00pm 18.2 15.7 12.2 68 3.3 SE 17 28 9 15 1009.0 1009.0 0.0
23/09:30pm 18.1 15.2 12.3 69 3.2 SSE 19 24 10 13 1009.0 1009.0 0.0
23/09:00pm 18.1 15.0 12.3 69 3.2 SSE 20 30 11 16 1008.9 1008.9 0.0
23/08:30pm 18.2 14.4 12.4 69 3.2 SSE 24 32 13 17 1008.8 1008.8 0.0
23/08:00pm 18.7 14.4 12.2 66 3.6 SSE 26 39 14 21 1008.6 1008.6 0.0
23/07:30pm 19.2 14.0 11.7 62 4.1 SSE 30 41 16 22 1008.1 1008.1 0.0
23/07:00pm 19.8 15.4 12.8 64 4.0 SSE 28 41 15 22 1007.9 1007.9 0.0
23/06:30pm 20.4 16.2 13.4 64 4.0 S 28 41 15 22 1007.4 1007.4 0.0
23/06:00pm 20.4 15.6 12.9 62 4.3 SSE 30 43 16 23 1007.2 1007.2 0.0
23/05:30pm 20.8 16.0 13.0 61 4.4 SSE 30 43 16 23 1007.1 1007.1 0.0
23/05:00pm 22.0 18.4 14.1 61 4.6 SSE 26 35 14 19 1006.8 1006.8 0.0
23/04:30pm 21.3 17.2 13.7 62 4.4 SSE 28 37 15 20 1006.7 1006.7 0.0
23/04:00pm 21.8 17.5 14.4 63 4.3 SSE 30 39 16 21 1006.6 1006.6 0.0
23/03:30pm 21.7 17.3 14.1 62 4.4 SSE 30 41 16 22 1006.6 1006.6 0.0
23/03:00pm 22.7 19.1 15.3 63 4.4 SSE 28 39 15 21 1006.5 1006.5 0.0
23/02:30pm 22.7 19.9 15.3 63 4.4 SSE 24 35 13 19 1006.3 1006.3 0.0
23/02:00pm 23.3 20.2 15.6 62 4.6 SSE 26 33 14 18 1006.5 1006.5 0.0
23/01:30pm 23.2 20.6 15.8 63 4.5 SE 24 33 13 18 1006.4 1006.4 0.0
23/01:00pm 23.8 21.2 14.8 57 5.4 SE 22 32 12 17 1006.6 1006.6 0.0
23/12:30pm 23.6 20.7 14.0 55 5.6 SE 22 33 12 18 1006.5 1006.5 0.0
23/12:00pm 25.0 20.7 10.8 41 8.0 S 24 33 13 18 1006.4 1006.4 0.0
23/11:30am 24.5 19.7 8.9 37 8.4 SSW 24 32 13 17 1006.4 1006.4 0.0
23/11:00am 25.0 21.0 10.5 40 8.1 SSW 22 30 12 16 1006.2 1006.2 0.0
23/10:30am 24.3 19.7 10.9 43 7.5 SSW 26 32 14 17 1006.1 1006.1 0.0
23/10:00am 25.0 20.6 8.9 36 8.7 SSW 22 32 12 17 1006.0 1006.0 0.0
23/09:30am 24.9 21.5 10.4 40 8.1 SSW 19 24 10 13 1005.6 1005.6 0.0
23/09:00am 24.2 22.8 13.4 51 6.3 SW 13 17 7 9 1005.5 1005.5 0.0
23/08:30am 23.1 22.0 14.4 58 5.1 WSW 13 19 7 10 1005.2 1005.2 0.0
23/08:00am 22.2 20.8 15.5 66 4.0 WSW 17 20 9 11 1004.9 1004.9 0.0
23/07:30am 20.9 21.3 15.4 71 3.3 WSW 7 9 4 5 1004.5 1004.5 0.0
23/07:00am 20.8 21.2 15.4 71 3.2 WSW 7 13 4 7 1004.0 1004.0 0.0
23/06:30am 21.4 19.9 15.3 68 3.6 WSW 17 22 9 12 1003.8 1003.8 0.0
23/06:00am 21.2 20.0 15.1 68 3.6 WSW 15 20 8 11 1003.5 1003.5 0.0
23/05:30am 21.3 19.1 16.0 72 3.2 WSW 22 30 12 16 1003.0 1003.0 0.0

Latest Capital City Observations: Canberra | Sydney | Melbourne | Brisbane | Adelaide | Perth | Hobart | Darwin

Other Formats:

Comma delimited format used in spreadsheet applications
http://www.bom.gov.au/fwo/IDV60901/IDV60901.94865.axf

JavaScript Object Notation format (JSON) in row-major order
http://www.bom.gov.au/fwo/IDV60901/IDV60901.94865.json